createdAt,value
2022-09-28T06:50:14.472Z,16.58
2022-09-28T06:55:41.327Z,15.55
2022-09-28T07:00:45.160Z,10.63
2022-09-28T07:05:52.608Z,11.93
2022-09-28T07:11:13.599Z,21.38
2022-09-28T07:17:05.328Z,11.00
2022-09-28T07:22:05.793Z,15.80
2022-09-28T07:27:11.159Z,17.05
2022-09-28T07:32:32.180Z,20.13
2022-09-28T07:37:59.512Z,15.45
2022-09-28T07:43:07.648Z,13.93
2022-09-28T07:48:16.093Z,11.82
2022-09-28T07:53:40.026Z,14.70
2022-09-28T07:58:54.698Z,14.43
2022-09-28T08:04:16.943Z,14.43
2022-09-28T08:09:24.179Z,14.07
2022-09-28T08:14:46.734Z,15.90
2022-09-28T08:20:27.766Z,17.98
2022-09-28T08:25:35.675Z,15.55
2022-09-28T08:30:40.955Z,13.90
2022-09-28T08:36:06.153Z,14.15
2022-09-28T08:41:43.684Z,12.60
2022-09-28T08:47:07.958Z,11.40
2022-09-28T08:52:40.334Z,12.55
2022-09-28T08:58:16.638Z,11.68
2022-09-28T09:03:28.869Z,12.57
2022-09-28T09:09:06.871Z,12.05
2022-09-28T09:15:12.072Z,12.40
2022-09-28T09:20:27.074Z,10.55
2022-09-28T09:25:46.151Z,13.63
2022-09-28T09:30:59.942Z,10.93
2022-09-28T09:36:35.638Z,13.23
2022-09-28T09:42:24.050Z,9.77
2022-09-28T09:48:09.628Z,10.90
2022-09-28T09:53:42.334Z,9.05
2022-09-28T09:58:54.527Z,8.40
2022-09-28T10:10:44.697Z,9.55
2022-09-28T10:15:54.072Z,8.30
2022-09-28T10:21:13.741Z,5.47
2022-09-28T10:26:33.744Z,5.72
2022-09-28T10:31:40.979Z,5.13
2022-09-28T10:36:58.462Z,5.55
2022-09-28T10:42:18.756Z,5.78
2022-09-28T10:47:25.663Z,5.97
2022-09-28T10:52:37.003Z,4.70
2022-09-28T10:58:13.080Z,10.73
2022-09-28T11:03:30.347Z,6.88
2022-09-28T11:08:41.467Z,8.32
2022-09-28T11:13:50.504Z,6.30
2022-09-28T11:19:34.456Z,4.22
2022-09-28T11:24:49.479Z,3.80
2022-09-28T11:30:00.513Z,5.70
2022-09-28T11:35:19.783Z,5.68
2022-09-28T11:40:36.631Z,4.55
2022-09-28T11:45:53.606Z,6.20
2022-09-28T11:51:03.753Z,10.07
2022-09-28T11:56:18.223Z,5.07
2022-09-28T12:01:30.086Z,7.80
2022-09-28T12:07:05.062Z,6.05
2022-09-28T12:12:23.251Z,4.65
2022-09-28T12:17:33.496Z,2.67
2022-09-28T12:22:45.358Z,3.85
2022-09-28T12:27:56.705Z,2.90
2022-09-28T12:33:05.301Z,3.90
2022-09-28T12:38:29.241Z,2.35
2022-09-28T12:43:53.146Z,3.80
2022-09-28T12:50:07.241Z,5.28
2022-09-28T12:54:58.059Z,3.67
2022-09-28T13:00:05.711Z,2.85
2022-09-28T13:05:24.427Z,2.50
2022-09-28T13:10:34.707Z,3.35
2022-09-28T13:15:47.208Z,2.85
2022-09-28T13:21:09.772Z,3.63
2022-09-28T13:26:28.086Z,2.33
2022-09-28T13:31:37.145Z,1.90
2022-09-28T13:37:12.058Z,3.10
2022-09-28T13:42:29.244Z,2.28
2022-09-28T13:48:04.818Z,1.33
2022-09-28T13:53:19.705Z,1.13
2022-09-28T13:58:27.729Z,2.20
2022-09-28T14:03:45.091Z,2.85
2022-09-28T14:09:10.577Z,3.60
2022-09-28T14:14:50.663Z,1.85
2022-09-28T14:19:57.565Z,2.33
2022-09-28T14:25:11.836Z,1.40
2022-09-28T14:30:23.301Z,3.80
2022-09-28T14:35:32.757Z,1.95
2022-09-28T14:41:12.881Z,2.15
2022-09-28T14:46:33.729Z,1.60
2022-09-28T14:52:06.531Z,1.17
2022-09-28T14:57:17.894Z,4.70
2022-09-28T15:02:26.192Z,1.63
2022-09-28T15:07:34.308Z,4.03
2022-09-28T15:12:37.868Z,3.67
2022-09-28T15:17:55.398Z,4.63
2022-09-28T15:23:01.930Z,1.60
2022-09-28T15:28:19.329Z,2.15
2022-09-28T15:33:50.418Z,2.00
2022-09-28T15:38:59.968Z,3.97
2022-09-28T15:44:29.595Z,1.20
2022-09-28T15:49:42.829Z,2.35
2022-09-28T15:54:46.623Z,2.28
2022-09-28T15:59:56.856Z,2.10
2022-09-28T16:05:05.260Z,2.33
2022-09-28T16:10:33.742Z,2.30
2022-09-28T16:15:39.295Z,3.35
2022-09-28T16:20:45.741Z,4.00
2022-09-28T16:25:56.443Z,1.50
2022-09-28T16:31:03.116Z,6.28
2022-09-28T16:36:13.422Z,5.82
2022-09-28T16:41:22.483Z,6.13
2022-09-28T16:46:34.488Z,4.93
2022-09-28T16:51:40.431Z,6.22
2022-09-28T16:56:44.089Z,6.38
2022-09-28T17:01:48.723Z,6.47
2022-09-28T17:06:56.618Z,4.32
2022-09-28T17:12:00.287Z,3.33
2022-09-28T17:17:09.757Z,5.32
2022-09-28T17:22:16.713Z,6.03
2022-09-28T17:27:21.665Z,6.70
2022-09-28T17:37:29.906Z,7.32
2022-09-28T17:47:36.779Z,5.05
2022-09-28T17:52:42.182Z,2.53
2022-09-28T17:57:48.120Z,4.15
2022-09-28T18:02:52.290Z,2.78
2022-09-28T18:07:58.085Z,2.27
2022-09-28T18:13:01.687Z,9.52
2022-09-28T18:18:09.525Z,7.25
2022-09-28T18:23:14.490Z,2.78
2022-09-28T18:33:22.143Z,3.50
2022-09-28T18:38:28.515Z,3.77
2022-09-28T18:43:35.647Z,3.80
2022-09-28T18:48:40.553Z,3.85
2022-09-28T18:53:46.743Z,3.92
2022-09-28T18:58:51.649Z,4.97
2022-09-28T19:03:55.128Z,2.97
2022-09-28T19:09:00.155Z,3.25
2022-09-28T19:19:12.818Z,3.70
2022-09-28T19:24:19.401Z,4.38
2022-09-28T19:29:23.673Z,4.38
2022-09-28T19:34:30.163Z,15.57
2022-09-28T19:39:35.336Z,14.00
2022-09-28T19:49:43.091Z,14.38
2022-09-28T19:54:56.498Z,12.13
2022-09-28T20:00:03.979Z,19.88
2022-09-28T20:05:10.771Z,14.43
2022-09-28T20:10:15.793Z,15.18
2022-09-28T20:20:28.282Z,15.65
2022-09-28T20:25:33.218Z,19.05
2022-09-28T20:30:38.428Z,22.70
2022-09-28T20:35:44.523Z,17.02
2022-09-28T20:40:50.188Z,13.80
2022-09-28T20:45:56.852Z,15.80
2022-09-28T20:51:03.028Z,20.77
2022-09-28T20:56:09.632Z,18.48
2022-09-28T21:01:17.150Z,13.57
2022-09-28T21:06:23.146Z,12.40
2022-09-28T21:11:29.736Z,12.30
2022-09-28T21:16:36.258Z,12.88
2022-09-28T21:21:40.026Z,10.73
2022-09-28T21:26:48.470Z,9.60
2022-09-28T21:31:51.997Z,9.80
2022-09-28T21:36:55.516Z,9.13
2022-09-28T21:42:00.416Z,11.68
2022-09-28T21:47:03.876Z,8.40
2022-09-28T21:52:09.392Z,7.47
